Time;durP1;ratioP1;P1;durP2;ratioP2;P2;SDS_P1;SDS_P2;PMS_P1;PMS_P2;Temp;Humidity;BMP_temperature;BMP_pressure;BME280_temperature;BME280_humidity;BME280_pressure;Samples;Min_cycle;Max_cycle;Signal;HPM_P1;HPM_P2
2021/07/20 00:01:29;;;;;;;17.27;14.30;;;18.00;99.90;;;;;;4950467;29;20522;-72
2021/07/20 00:03:55;;;;;;;15.83;14.10;;;18.00;99.90;;;;;;4951399;28;20492;-71
2021/07/20 00:06:22;;;;;;;16.60;14.10;;;17.90;99.90;;;;;;4950931;29;20468;-72
2021/07/20 00:08:50;;;;;;;18.50;14.10;;;17.90;99.90;;;;;;4949765;28;20468;-71
2021/07/20 00:11:17;;;;;;;17.93;14.77;;;17.90;99.90;;;;;;4949657;28;20516;-72
2021/07/20 00:13:45;;;;;;;15.90;13.83;;;17.90;99.90;;;;;;4955286;28;20515;-75
2021/07/20 00:16:14;;;;;;;17.90;13.97;;;17.90;99.90;;;;;;4960668;28;20468;-74
2021/07/20 00:18:41;;;;;;;16.27;13.10;;;17.80;99.90;;;;;;5144782;22;20836;-72
2021/07/20 00:21:10;;;;;;;16.50;14.10;;;17.90;99.90;;;;;;5088577;28;20634;-71
2021/07/20 00:23:36;;;;;;;16.30;13.23;;;17.80;99.90;;;;;;5088348;28;20472;-71
2021/07/20 00:26:06;;;;;;;15.07;13.47;;;17.80;99.90;;;;;;5088814;28;20829;-71
2021/07/20 00:28:33;;;;;;;15.67;13.47;;;17.80;99.90;;;;;;5088628;28;20449;-72
2021/07/20 00:31:00;;;;;;;18.93;13.20;;;17.70;99.90;;;;;;5088584;28;20461;-71
2021/07/20 00:33:27;;;;;;;14.37;12.70;;;17.60;99.90;;;;;;5089005;28;20457;-72
2021/07/20 00:35:53;;;;;;;17.80;13.83;;;17.60;99.90;;;;;;5089010;28;21010;-71
2021/07/20 00:38:20;;;;;;;17.60;14.73;;;17.60;99.90;;;;;;5089096;28;21015;-72
2021/07/20 00:40:47;;;;;;;16.37;14.23;;;17.60;99.90;;;;;;5088360;28;20469;-71
2021/07/20 01:28:49;;;;;;;15.73;13.40;;;17.00;99.90;;;;;;5086272;28;20528;-71
2021/07/20 01:31:20;;;;;;;17.93;13.67;;;17.00;99.90;;;;;;5083772;28;20839;-71
2021/07/20 01:33:51;;;;;;;16.53;13.57;;;16.90;99.90;;;;;;5088187;28;20461;-71
2021/07/20 01:36:20;;;;;;;17.30;13.80;;;16.90;99.90;;;;;;5091513;28;20453;-71
2021/07/20 01:38:47;;;;;;;17.80;13.00;;;16.80;99.90;;;;;;5092278;28;20457;-72
2021/07/20 01:41:16;;;;;;;18.40;14.20;;;16.80;99.90;;;;;;5091782;28;20877;-70
2021/07/20 01:43:46;;;;;;;15.97;13.73;;;16.80;99.90;;;;;;5092293;28;20457;-72
2021/07/20 01:46:14;;;;;;;22.27;15.13;;;16.70;99.90;;;;;;5091948;28;20468;-71
2021/07/20 01:48:46;;;;;;;14.80;13.10;;;16.70;99.90;;;;;;5092247;28;20480;-71
2021/07/20 01:51:14;;;;;;;16.10;14.07;;;16.70;99.90;;;;;;5091508;28;20484;-71
2021/07/20 01:53:42;;;;;;;17.27;14.07;;;16.60;99.90;;;;;;5092199;28;20595;-71
2021/07/20 01:56:11;;;;;;;16.20;12.73;;;16.60;99.90;;;;;;5091738;28;20465;-72
2021/07/20 01:58:41;;;;;;;18.50;13.03;;;16.60;99.90;;;;;;5092541;28;20453;-71
2021/07/20 02:01:10;;;;;;;16.63;13.93;;;16.60;99.90;;;;;;5070581;28;20976;-72
2021/07/20 02:03:59;;;;;;;15.67;13.40;;;16.50;99.90;;;;;;5072034;28;20458;-71
2021/07/20 02:09:16;;;;;;;15.60;13.17;;;16.50;99.90;;;;;;5071702;28;20822;-71
2021/07/20 02:11:45;;;;;;;16.80;12.57;;;16.50;99.90;;;;;;5072023;28;20461;-71
2021/07/20 02:14:14;;;;;;;14.40;12.53;;;16.50;99.90;;;;;;5071966;28;20532;-71
2021/07/20 02:16:46;;;;;;;21.53;14.87;;;16.40;99.90;;;;;;5071695;28;20897;-71
2021/07/20 02:19:17;;;;;;;15.50;12.90;;;16.40;99.90;;;;;;5071679;28;21232;-72
2021/07/20 02:21:50;;;;;;;16.60;13.10;;;16.30;99.90;;;;;;5092060;28;20480;-72
2021/07/20 02:24:18;;;;;;;19.00;13.30;;;16.30;99.90;;;;;;5092150;28;20531;-72
2021/07/20 02:26:47;;;;;;;19.37;13.30;;;16.30;99.90;;;;;;5091727;28;20458;-71
2021/07/20 02:29:15;;;;;;;15.40;13.40;;;16.20;99.90;;;;;;5091206;28;20467;-71
2021/07/20 02:31:44;;;;;;;18.80;14.07;;;16.20;99.90;;;;;;5091702;28;20462;-71
2021/07/20 02:34:12;;;;;;;16.57;14.13;;;16.10;99.90;;;;;;5091422;28;20477;-72
2021/07/20 02:36:40;;;;;;;17.47;13.57;;;16.10;99.90;;;;;;5091815;28;20471;-71
2021/07/20 02:39:09;;;;;;;16.30;12.80;;;16.10;99.90;;;;;;5091226;28;20458;-71
2021/07/20 02:41:37;;;;;;;19.07;13.33;;;16.10;99.90;;;;;;5091768;28;20457;-72
2021/07/20 02:44:06;;;;;;;16.17;13.27;;;16.10;99.90;;;;;;5091309;28;20477;-70
2021/07/20 02:46:33;;;;;;;16.20;13.63;;;16.10;99.90;;;;;;5103500;28;20948;-71
2021/07/20 02:49:01;;;;;;;18.10;12.57;;;16.10;99.90;;;;;;5111560;28;20484;-71
2021/07/20 02:51:28;;;;;;;16.10;13.30;;;16.10;99.90;;;;;;5111479;28;20479;-71
2021/07/20 02:53:57;;;;;;;16.90;13.70;;;16.00;99.90;;;;;;5111446;28;21031;-72
2021/07/20 02:56:26;;;;;;;17.23;13.50;;;16.00;99.90;;;;;;5111796;28;20464;-71
2021/07/20 02:58:55;;;;;;;14.87;12.83;;;16.00;99.90;;;;;;5111468;28;20461;-71
2021/07/20 03:01:23;;;;;;;15.73;13.20;;;16.00;99.90;;;;;;5111337;28;20457;-72
2021/07/20 03:03:49;;;;;;;14.10;12.53;;;16.00;99.90;;;;;;5111221;28;20970;-71
2021/07/20 03:06:17;;;;;;;18.20;13.27;;;15.90;99.90;;;;;;5111537;28;20461;-71
2021/07/20 03:08:45;;;;;;;17.63;12.53;;;15.90;99.90;;;;;;5111456;28;20480;-71
2021/07/20 03:11:15;;;;;;;17.17;13.20;;;15.90;99.90;;;;;;5110904;28;20456;-72
2021/07/20 03:13:48;;;;;;;17.83;12.47;;;15.80;99.90;;;;;;5111290;28;20465;-72
2021/07/20 03:16:16;;;;;;;16.20;12.67;;;15.80;99.90;;;;;;5111275;28;20464;-71
2021/07/20 03:18:45;;;;;;;16.57;12.90;;;15.80;99.90;;;;;;5106348;28;21664;-72
2021/07/20 03:21:14;;;;;;;19.30;11.93;;;15.80;99.90;;;;;;5089751;28;20474;-71
2021/07/20 03:23:42;;;;;;;14.20;12.30;;;15.70;99.90;;;;;;5090095;28;20457;-72
2021/07/20 03:26:09;;;;;;;19.80;12.57;;;15.70;99.90;;;;;;5090324;28;20972;-71
2021/07/20 03:28:38;;;;;;;15.90;12.30;;;15.70;99.90;;;;;;5090410;28;20485;-71
2021/07/20 03:31:06;;;;;;;14.33;12.43;;;15.70;99.90;;;;;;5089374;28;20915;-71
2021/07/20 03:33:33;;;;;;;15.50;12.80;;;15.70;99.90;;;;;;5088876;28;20987;-71
2021/07/20 03:36:01;;;;;;;14.17;12.50;;;15.60;99.90;;;;;;5087241;28;20500;-71
2021/07/20 03:38:30;;;;;;;16.30;11.30;;;15.60;99.90;;;;;;5087133;28;20989;-72
2021/07/20 03:40:57;;;;;;;13.33;11.93;;;15.50;99.90;;;;;;5086301;28;20464;-72
2021/07/20 03:43:24;;;;;;;16.83;11.93;;;15.50;99.90;;;;;;5088264;28;20460;-71
2021/07/20 03:45:52;;;;;;;15.57;12.97;;;15.50;99.90;;;;;;5088226;28;20482;-71
2021/07/20 03:48:21;;;;;;;14.90;12.53;;;15.50;99.90;;;;;;5088429;28;20485;-71
2021/07/20 03:50:52;;;;;;;14.93;12.40;;;15.40;99.90;;;;;;5089523;28;20465;-71
2021/07/20 03:53:19;;;;;;;14.60;12.20;;;15.40;99.90;;;;;;5090119;28;20461;-71
2021/07/20 03:55:48;;;;;;;15.80;12.60;;;15.40;99.90;;;;;;5090058;28;20452;-70
2021/07/20 03:58:17;;;;;;;14.27;12.23;;;15.40;99.90;;;;;;5090091;28;20199;-70
2021/07/20 04:00:47;;;;;;;13.60;11.47;;;15.30;99.90;;;;;;5086132;28;20461;-70
2021/07/20 04:03:23;;;;;;;14.30;12.80;;;15.30;99.90;;;;;;5083766;28;20458;-69
2021/07/20 04:05:55;;;;;;;16.50;12.00;;;15.20;99.90;;;;;;5087648;28;20484;-70
2021/07/20 04:08:23;;;;;;;14.73;12.00;;;15.20;99.90;;;;;;5085760;28;21063;-69
2021/07/20 04:10:52;;;;;;;17.47;12.20;;;15.20;99.90;;;;;;5089075;28;20465;-71
2021/07/20 04:13:20;;;;;;;13.93;11.60;;;15.10;99.90;;;;;;5089839;28;20458;-71
2021/07/20 04:15:49;;;;;;;14.70;12.10;;;15.10;99.90;;;;;;5089310;28;20485;-71
2021/07/20 04:18:16;;;;;;;13.60;10.77;;;15.10;99.90;;;;;;5086288;28;20469;-70
2021/07/20 04:20:45;;;;;;;15.10;12.10;;;15.10;99.90;;;;;;5089036;28;20544;-72
2021/07/20 04:23:13;;;;;;;14.43;11.73;;;15.10;99.90;;;;;;5088820;28;20454;-71
2021/07/20 04:25:43;;;;;;;14.20;11.33;;;15.10;99.90;;;;;;5089681;28;20480;-71
2021/07/20 04:28:10;;;;;;;13.60;11.47;;;15.10;99.90;;;;;;5089234;28;20512;-72
2021/07/20 04:30:38;;;;;;;13.93;11.90;;;15.10;99.90;;;;;;5087771;28;20968;-72
2021/07/20 04:33:05;;;;;;;13.43;11.23;;;15.10;99.90;;;;;;5087628;28;20472;-71
2021/07/20 04:35:33;;;;;;;16.03;11.23;;;15.10;99.90;;;;;;5088506;28;20481;-72
2021/07/20 04:38:01;;;;;;;14.23;11.00;;;15.10;99.90;;;;;;5088374;28;20480;-72
2021/07/20 04:40:29;;;;;;;14.70;11.43;;;15.10;99.90;;;;;;5088179;28;20457;-71
2021/07/20 04:42:56;;;;;;;13.33;11.70;;;15.10;99.90;;;;;;5088324;28;20469;-69
2021/07/20 04:45:25;;;;;;;16.10;11.53;;;15.10;99.90;;;;;;5089081;28;20477;-71
2021/07/20 04:47:52;;;;;;;13.90;11.60;;;15.20;99.90;;;;;;5088823;28;20482;-71
2021/07/20 04:50:18;;;;;;;18.10;12.30;;;15.20;99.90;;;;;;5088884;28;20457;-71
2021/07/20 04:52:46;;;;;;;15.70;11.73;;;15.20;99.90;;;;;;5089067;28;20464;-71
2021/07/20 04:55:15;;;;;;;14.07;11.20;;;15.20;99.90;;;;;;5088921;28;20481;-71
2021/07/20 04:57:43;;;;;;;12.53;10.97;;;15.30;99.90;;;;;;5089253;28;20500;-70
2021/07/20 05:00:11;;;;;;;11.90;10.63;;;15.30;99.90;;;;;;5088510;28;20469;-71
2021/07/20 05:02:42;;;;;;;14.50;11.07;;;15.30;99.90;;;;;;5089100;28;20567;-71
2021/07/20 05:05:10;;;;;;;13.83;11.40;;;15.30;99.90;;;;;;5088825;28;20831;-71
2021/07/20 05:07:39;;;;;;;13.73;11.93;;;15.40;99.90;;;;;;5088990;28;20976;-71
2021/07/20 05:10:07;;;;;;;12.70;10.23;;;15.40;99.90;;;;;;5093684;28;20457;-70
2021/07/20 05:12:34;;;;;;;12.60;10.60;;;15.40;99.90;;;;;;5095629;28;20466;-71
2021/07/20 05:15:02;;;;;;;12.10;10.80;;;15.40;99.90;;;;;;5095263;28;20485;-71
2021/07/20 05:17:29;;;;;;;13.70;10.90;;;15.50;99.90;;;;;;5095621;28;20469;-71
2021/07/20 05:19:56;;;;;;;15.47;11.00;;;15.50;99.90;;;;;;5094791;28;20461;-70
2021/07/20 05:22:24;;;;;;;16.57;11.57;;;15.50;99.90;;;;;;5095546;28;20465;-71
2021/07/20 05:24:50;;;;;;;13.00;11.40;;;15.60;99.90;;;;;;5095270;28;20477;-71
2021/07/20 05:27:19;;;;;;;14.27;11.70;;;15.60;99.90;;;;;;5095773;28;20466;-71
2021/07/20 05:29:48;;;;;;;16.30;11.67;;;15.60;99.90;;;;;;5094742;28;21066;-70
2021/07/20 05:32:18;;;;;;;13.63;11.27;;;15.70;99.90;;;;;;5095258;28;20468;-71
2021/07/20 05:34:48;;;;;;;12.23;10.60;;;15.70;99.90;;;;;;5095462;28;20477;-71
2021/07/20 05:37:18;;;;;;;11.87;10.60;;;15.70;99.90;;;;;;5095323;28;20462;-71
2021/07/20 05:39:45;;;;;;;14.97;11.10;;;15.80;99.90;;;;;;5094894;28;20489;-71
2021/07/20 05:42:12;;;;;;;15.17;10.40;;;15.80;99.90;;;;;;5095166;28;21313;-71
2021/07/20 05:44:39;;;;;;;13.10;10.80;;;15.90;99.90;;;;;;5094648;28;20848;-71
2021/07/20 05:47:08;;;;;;;14.50;10.40;;;15.90;99.90;;;;;;5094935;28;20464;-71
2021/07/20 05:49:36;;;;;;;13.80;10.67;;;16.00;99.90;;;;;;5094749;28;20480;-71
2021/07/20 05:52:04;;;;;;;13.00;10.43;;;16.00;99.90;;;;;;5094814;28;20464;-71
2021/07/20 05:54:32;;;;;;;14.10;11.10;;;16.00;99.90;;;;;;5094294;28;20491;-71
2021/07/20 05:57:01;;;;;;;16.20;10.90;;;16.00;99.90;;;;;;5094954;28;20454;-72
2021/07/20 05:59:28;;;;;;;12.37;9.83;;;16.10;99.90;;;;;;5094727;28;20464;-71
2021/07/20 06:01:56;;;;;;;13.40;9.77;;;16.10;99.90;;;;;;5094896;28;20468;-71
2021/07/20 06:04:24;;;;;;;12.13;9.80;;;16.10;99.90;;;;;;5095226;28;20851;-72
2021/07/20 06:06:52;;;;;;;15.70;10.77;;;16.10;99.90;;;;;;5095694;28;20460;-71
2021/07/20 06:09:21;;;;;;;12.73;10.00;;;16.20;99.90;;;;;;5095998;28;20867;-71
2021/07/20 06:11:50;;;;;;;12.97;10.33;;;16.20;99.90;;;;;;5096144;28;21037;-71
2021/07/20 06:14:18;;;;;;;14.43;10.67;;;16.20;99.90;;;;;;5095040;28;20488;-71
2021/07/20 06:16:45;;;;;;;13.73;10.60;;;16.30;99.90;;;;;;5094905;28;20461;-71
2021/07/20 06:19:12;;;;;;;12.50;10.30;;;16.30;99.90;;;;;;5150877;22;20513;-71
2021/07/20 06:21:40;;;;;;;12.60;10.23;;;16.30;99.90;;;;;;4969537;28;20455;-71
2021/07/20 06:24:09;;;;;;;11.77;9.67;;;16.30;99.90;;;;;;4969298;28;20487;-71
2021/07/20 06:26:37;;;;;;;16.00;9.60;;;16.40;99.90;;;;;;4969176;28;20466;-69
2021/07/20 06:29:07;;;;;;;13.47;9.50;;;16.40;99.90;;;;;;4954636;28;20646;-71
2021/07/20 06:31:39;;;;;;;14.87;11.10;;;16.40;99.90;;;;;;4949973;28;20474;-70
2021/07/20 06:34:06;;;;;;;10.63;9.30;;;16.50;99.90;;;;;;4950145;28;20541;-71
2021/07/20 06:36:35;;;;;;;13.13;10.20;;;16.50;99.90;;;;;;4949851;28;20468;-71
2021/07/20 06:39:03;;;;;;;15.50;10.30;;;16.60;99.90;;;;;;4950064;28;20964;-71
2021/07/20 06:41:34;;;;;;;12.87;10.77;;;16.60;99.90;;;;;;4949289;28;20812;-72
2021/07/20 06:44:02;;;;;;;13.50;11.03;;;16.70;99.90;;;;;;4949960;28;20621;-69
2021/07/20 06:46:30;;;;;;;12.07;9.70;;;16.80;99.90;;;;;;4949703;28;20479;-70
2021/07/20 06:48:57;;;;;;;16.90;11.23;;;16.80;99.90;;;;;;4949671;28;20496;-71
2021/07/20 06:51:25;;;;;;;12.30;10.17;;;16.90;99.90;;;;;;4949263;28;20968;-70
2021/07/20 06:53:52;;;;;;;13.37;10.70;;;16.90;99.90;;;;;;4949623;28;20471;-69
2021/07/20 06:56:24;;;;;;;12.60;10.07;;;17.00;99.90;;;;;;4949644;28;20577;-71
2021/07/20 06:58:53;;;;;;;15.00;10.87;;;17.10;99.90;;;;;;4949607;28;20464;-70
2021/07/20 07:01:22;;;;;;;14.60;9.70;;;17.10;99.90;;;;;;4959581;28;20470;-70
2021/07/20 07:03:54;;;;;;;10.07;9.03;;;17.20;99.90;;;;;;4968769;28;20537;-71
2021/07/20 07:06:24;;;;;;;11.30;9.30;;;17.30;99.90;;;;;;4954521;28;20952;-70
2021/07/20 07:08:51;;;;;;;12.87;9.20;;;17.30;99.90;;;;;;4949498;28;20858;-70
2021/07/20 07:11:19;;;;;;;11.17;9.27;;;17.40;99.90;;;;;;4949020;28;20481;-71
2021/07/20 07:13:46;;;;;;;12.53;8.80;;;17.50;99.90;;;;;;4949599;28;20471;-71
2021/07/20 07:16:17;;;;;;;10.93;9.23;;;17.50;99.90;;;;;;4949278;28;20468;-71
2021/07/20 07:18:44;;;;;;;15.93;9.77;;;17.60;99.90;;;;;;4949327;28;20472;-70
2021/07/20 07:21:12;;;;;;;10.87;9.30;;;17.60;99.90;;;;;;4949410;28;20468;-71
2021/07/20 07:23:40;;;;;;;11.93;10.03;;;17.70;99.90;;;;;;4958940;28;20472;-71
2021/07/20 07:26:10;;;;;;;11.40;8.93;;;17.70;99.90;;;;;;4949551;28;20522;-71
2021/07/20 07:28:38;;;;;;;12.97;9.03;;;17.80;99.90;;;;;;4949298;28;20537;-71
2021/07/20 07:31:06;;;;;;;10.90;9.43;;;17.90;99.90;;;;;;4948639;28;20464;-70
2021/07/20 07:33:35;;;;;;;12.00;10.23;;;17.90;99.90;;;;;;4947577;28;20472;-71
2021/07/20 07:36:02;;;;;;;10.33;9.13;;;18.00;99.90;;;;;;4949288;28;20467;-71
2021/07/20 07:38:31;;;;;;;11.17;9.53;;;18.00;99.90;;;;;;4949847;28;20474;-70
2021/07/20 07:40:58;;;;;;;10.70;9.60;;;18.10;99.90;;;;;;4967763;28;20493;-70
2021/07/20 07:43:28;;;;;;;12.27;9.40;;;18.20;99.90;;;;;;4967843;28;20493;-70
2021/07/20 07:45:57;;;;;;;12.23;9.23;;;18.20;99.90;;;;;;4968232;28;20540;-71
2021/07/20 07:48:25;;;;;;;13.07;9.80;;;18.30;99.90;;;;;;4951157;28;20468;-70
2021/07/20 07:50:55;;;;;;;10.13;9.03;;;18.40;99.90;;;;;;4946884;28;20821;-71
2021/07/20 07:53:22;;;;;;;11.87;9.80;;;18.40;99.90;;;;;;4946123;28;20535;-70
2021/07/20 07:55:50;;;;;;;11.43;8.90;;;18.50;99.90;;;;;;4946802;28;20484;-70
2021/07/20 07:58:18;;;;;;;15.33;9.63;;;18.50;99.90;;;;;;4946688;28;20951;-70
2021/07/20 08:00:47;;;;;;;12.90;9.20;;;18.60;99.90;;;;;;4946617;28;20472;-71
2021/07/20 08:03:16;;;;;;;13.40;9.73;;;18.70;99.90;;;;;;4946548;28;20986;-71
2021/07/20 08:05:45;;;;;;;10.57;9.03;;;18.80;99.90;;;;;;4946681;28;20484;-70
2021/07/20 08:08:14;;;;;;;12.33;9.10;;;18.80;99.90;;;;;;4947041;28;20479;-70
2021/07/20 08:10:43;;;;;;;9.97;8.27;;;18.90;99.90;;;;;;4945733;28;20496;-71
2021/07/20 08:13:12;;;;;;;10.40;9.30;;;19.00;99.90;;;;;;4946465;28;20475;-70
2021/07/20 08:15:40;;;;;;;10.10;8.60;;;19.00;99.90;;;;;;4946456;28;20550;-71
2021/07/20 08:18:07;;;;;;;10.67;9.17;;;19.10;99.90;;;;;;4946274;28;20506;-71
2021/07/20 08:20:35;;;;;;;12.30;9.00;;;19.20;99.90;;;;;;4946284;28;20497;-71
2021/07/20 08:23:01;;;;;;;10.53;9.13;;;19.30;99.90;;;;;;5003858;28;20466;-71
2021/07/20 08:25:32;;;;;;;11.63;8.93;;;19.30;99.90;;;;;;5045862;28;20479;-71
2021/07/20 08:28:04;;;;;;;11.27;9.00;;;19.40;99.90;;;;;;5047041;28;20482;-72
2021/07/20 08:30:34;;;;;;;10.87;8.20;;;19.50;99.90;;;;;;5045792;28;20510;-71
2021/07/20 08:33:02;;;;;;;10.60;8.63;;;19.60;99.90;;;;;;5046602;28;20482;-71
2021/07/20 08:35:32;;;;;;;12.13;8.67;;;19.70;99.90;;;;;;5046627;28;20479;-71
2021/07/20 08:38:02;;;;;;;9.40;8.03;;;19.70;99.90;;;;;;5046693;28;20456;-71
2021/07/20 08:40:54;;;;;;;10.10;9.00;;;19.80;99.90;;;;;;5045768;28;20981;-71
2021/07/20 08:43:31;;;;;;;9.77;8.00;;;19.80;99.90;;;;;;5045525;28;20475;-71
2021/07/20 08:46:14;;;;;;;10.20;9.20;;;19.80;99.90;;;;;;5046564;28;20499;-71
2021/07/20 08:48:49;;;;;;;10.73;7.90;;;19.90;99.90;;;;;;5046428;28;20973;-71
2021/07/20 08:51:25;;;;;;;10.33;8.10;;;19.90;99.90;;;;;;5046140;28;20817;-71
2021/07/20 08:53:58;;;;;;;12.33;8.23;;;20.00;99.90;;;;;;5046279;28;20468;-71
2021/07/20 08:56:28;;;;;;;9.93;8.37;;;20.00;99.90;;;;;;5045717;28;20463;-71
2021/07/20 08:59:02;;;;;;;9.50;8.23;;;20.00;99.90;;;;;;5046914;28;20459;-71
2021/07/20 09:01:36;;;;;;;10.33;8.30;;;20.10;99.90;;;;;;4996985;28;20466;-70
2021/07/20 09:04:08;;;;;;;14.87;9.50;;;20.00;99.90;;;;;;4964978;28;21042;-71
2021/07/20 09:06:41;;;;;;;8.83;7.93;;;20.00;99.90;;;;;;4965072;28;20873;-71
2021/07/20 09:09:14;;;;;;;10.60;9.10;;;20.00;99.90;;;;;;4964681;28;20548;-71
2021/07/20 09:11:46;;;;;;;9.97;8.60;;;20.10;99.90;;;;;;4965245;28;20478;-70
2021/07/20 09:14:26;;;;;;;11.53;8.93;;;20.10;99.90;;;;;;5012043;28;20860;-70
2021/07/20 09:16:58;;;;;;;12.90;9.10;;;20.10;99.90;;;;;;5016105;28;20950;-71
2021/07/20 09:19:32;;;;;;;14.53;10.00;;;20.10;99.90;;;;;;4964530;28;20895;-70
2021/07/20 09:22:04;;;;;;;10.20;9.20;;;20.20;99.90;;;;;;4965239;28;20509;-71
2021/07/20 09:24:34;;;;;;;13.60;8.67;;;20.20;99.90;;;;;;4964777;28;20483;-71
2021/07/20 09:27:10;;;;;;;12.17;10.30;;;20.30;99.90;;;;;;4964985;28;20467;-71
2021/07/20 09:29:39;;;;;;;10.63;9.20;;;20.50;99.90;;;;;;4964460;28;21311;-71
2021/07/20 09:32:14;;;;;;;11.50;9.30;;;20.50;99.90;;;;;;4964868;28;20493;-71
2021/07/20 09:34:53;;;;;;;10.77;9.67;;;20.50;99.90;;;;;;4964774;28;20485;-70
2021/07/20 09:37:27;;;;;;;14.57;10.03;;;20.50;99.90;;;;;;4964490;28;20470;-71
2021/07/20 09:40:03;;;;;;;13.70;10.00;;;20.40;99.90;;;;;;4963433;28;20490;-70
2021/07/20 09:42:43;;;;;;;10.53;9.30;;;20.40;99.90;;;;;;4963958;28;20470;-71
2021/07/20 09:45:13;;;;;;;13.77;10.57;;;20.40;99.90;;;;;;4964044;28;20540;-70
2021/07/20 09:47:54;;;;;;;12.77;9.90;;;20.50;99.90;;;;;;4963580;28;20546;-71
2021/07/20 09:50:23;;;;;;;10.53;9.40;;;20.60;99.90;;;;;;4963682;28;20536;-71
2021/07/20 09:53:19;;;;;;;10.77;9.53;;;20.80;99.90;;;;;;4963925;28;20893;-70
2021/07/20 09:55:56;;;;;;;10.70;9.33;;;20.90;99.90;;;;;;4959246;28;20587;-71
2021/07/20 09:58:30;;;;;;;10.83;8.87;;;20.90;99.90;;;;;;4947743;28;20646;-70
2021/07/20 10:01:07;;;;;;;12.83;11.17;;;20.80;99.90;;;;;;4947110;28;20491;-70
2021/07/20 10:03:48;;;;;;;11.83;10.20;;;20.90;99.90;;;;;;4947448;28;20816;-71
2021/07/20 10:06:21;;;;;;;13.50;10.53;;;21.00;99.90;;;;;;4948229;28;20970;-70
2021/07/20 10:08:57;;;;;;;12.87;10.20;;;21.00;99.90;;;;;;4948251;28;20503;-71
2021/07/20 10:11:28;;;;;;;10.43;9.23;;;21.00;99.90;;;;;;5034544;28;20486;-71
2021/07/20 10:14:18;;;;;;;10.70;8.83;;;21.00;99.90;;;;;;5049762;28;20483;-69
2021/07/20 10:16:53;;;;;;;12.43;10.10;;;21.00;99.90;;;;;;5038134;28;20554;-70
2021/07/20 10:19:28;;;;;;;13.03;10.40;;;21.10;99.90;;;;;;5048428;28;20470;-69
2021/07/20 10:22:00;;;;;;;12.90;10.67;;;21.10;99.90;;;;;;5049355;28;20462;-69
2021/07/20 10:24:28;;;;;;;13.30;10.47;;;21.10;99.90;;;;;;5048183;28;20574;-70
2021/07/20 10:26:59;;;;;;;14.60;10.17;;;21.10;99.90;;;;;;5049154;28;20978;-70
2021/07/20 10:29:36;;;;;;;12.20;10.50;;;21.10;99.90;;;;;;5048023;28;20459;-71
2021/07/20 10:32:09;;;;;;;12.20;11.00;;;21.10;99.90;;;;;;5048948;28;20463;-70
2021/07/20 10:34:41;;;;;;;12.80;11.50;;;21.20;99.90;;;;;;5049077;28;20860;-71
2021/07/20 10:37:13;;;;;;;14.80;11.13;;;21.30;99.90;;;;;;5048957;28;20566;-70
2021/07/20 10:39:43;;;;;;;10.20;9.20;;;21.40;99.90;;;;;;5048975;28;20455;-71
2021/07/20 10:42:15;;;;;;;12.43;11.07;;;21.40;99.90;;;;;;5049153;28;20470;-71
2021/07/20 10:44:53;;;;;;;12.00;10.27;;;21.40;99.90;;;;;;5049241;28;20467;-70
2021/07/20 10:47:25;;;;;;;11.40;10.13;;;21.50;99.90;;;;;;5049225;28;20649;-70
2021/07/20 10:49:56;;;;;;;13.47;10.97;;;21.50;99.90;;;;;;5048789;28;20487;-70
2021/07/20 10:52:52;;;;;;;14.80;11.10;;;21.60;99.90;;;;;;5049564;28;20826;-71
2021/07/20 10:55:25;;;;;;;17.03;11.63;;;21.60;99.90;;;;;;5040731;28;20854;-70
2021/07/20 10:57:58;;;;;;;12.93;11.67;;;21.60;99.90;;;;;;5048964;28;20837;-71
2021/07/20 11:00:34;;;;;;;13.17;10.87;;;21.60;99.90;;;;;;5035543;28;20554;-71
2021/07/20 11:03:11;;;;;;;17.27;11.10;;;21.70;99.90;;;;;;4967390;28;20462;-70
2021/07/20 11:05:44;;;;;;;15.03;11.57;;;21.70;99.90;;;;;;4967801;28;20493;-71
2021/07/20 11:08:12;;;;;;;12.50;11.17;;;21.60;99.90;;;;;;5021301;28;20460;-71
2021/07/20 11:10:44;;;;;;;12.40;10.10;;;21.50;99.90;;;;;;5049060;28;20856;-70
2021/07/20 11:13:15;;;;;;;14.77;11.07;;;21.50;99.90;;;;;;5049305;28;20554;-71
2021/07/20 11:15:51;;;;;;;12.63;10.80;;;21.50;99.90;;;;;;5048840;28;20569;-70
2021/07/20 11:18:19;;;;;;;13.47;11.80;;;21.60;99.90;;;;;;5048607;28;20482;-71
2021/07/20 11:20:49;;;;;;;11.73;10.50;;;21.70;99.90;;;;;;4943422;28;20497;-70
2021/07/20 11:23:19;;;;;;;13.53;10.70;;;21.60;99.90;;;;;;4928162;28;20531;-70
2021/07/20 11:25:48;;;;;;;13.87;11.10;;;21.70;99.90;;;;;;4928431;28;20495;-71
2021/07/20 11:28:16;;;;;;;14.57;10.90;;;21.70;99.90;;;;;;4928308;28;20469;-71
2021/07/20 11:30:48;;;;;;;11.90;10.43;;;21.70;99.90;;;;;;4926997;28;20485;-70
2021/07/20 11:33:18;;;;;;;12.30;10.77;;;21.80;99.90;;;;;;4927613;28;20467;-71
2021/07/20 11:35:50;;;;;;;13.13;10.60;;;21.80;99.90;;;;;;4927038;28;20485;-70
2021/07/20 11:38:22;;;;;;;18.30;11.93;;;21.70;99.90;;;;;;4927590;28;20472;-71
2021/07/20 11:40:58;;;;;;;13.87;11.07;;;21.70;99.90;;;;;;4927064;28;20466;-71
2021/07/20 11:43:32;;;;;;;12.97;11.10;;;21.80;99.90;;;;;;4927617;28;20465;-70
2021/07/20 11:46:06;;;;;;;16.30;11.30;;;22.00;99.90;;;;;;4928142;28;20907;-71
2021/07/20 11:48:41;;;;;;;13.10;10.50;;;22.10;99.90;;;;;;4944518;29;20474;-71
2021/07/20 11:51:11;;;;;;;13.50;11.23;;;22.20;99.90;;;;;;4946505;28;20946;-72
2021/07/20 11:53:46;;;;;;;13.27;11.70;;;22.30;99.90;;;;;;4946190;28;20558;-71
2021/07/20 11:56:20;;;;;;;11.33;10.17;;;22.30;99.90;;;;;;4947374;28;20466;-71
2021/07/20 11:59:27;;;;;;;12.13;10.70;;;22.20;99.90;;;;;;4946414;28;20472;-70
2021/07/20 12:03:03;;;;;;;15.07;11.37;;;22.20;99.90;;;;;;4942852;28;20568;-70
2021/07/20 12:05:54;;;;;;;11.60;10.10;;;22.30;99.90;;;;;;4943936;29;20484;-71
2021/07/20 12:08:29;;;;;;;13.63;10.33;;;22.60;99.90;;;;;;4946532;28;20562;-72
2021/07/20 12:11:02;;;;;;;11.47;10.30;;;22.80;99.90;;;;;;4945932;28;20492;-71
2021/07/20 12:13:29;;;;;;;11.77;10.53;;;22.80;99.90;;;;;;4946142;28;20523;-71
2021/07/20 12:15:57;;;;;;;13.43;10.57;;;22.80;99.90;;;;;;4946513;28;20496;-71
2021/07/20 12:18:25;;;;;;;16.27;10.67;;;22.80;99.90;;;;;;4945642;28;20472;-71
2021/07/20 12:20:52;;;;;;;11.20;9.87;;;22.90;99.90;;;;;;4945791;28;20470;-71
2021/07/20 12:23:19;;;;;;;16.37;11.83;;;23.10;99.90;;;;;;4946968;28;20514;-71
2021/07/20 12:25:46;;;;;;;11.73;10.53;;;23.20;99.90;;;;;;4946128;28;20497;-71
2021/07/20 12:28:13;;;;;;;14.87;10.77;;;23.30;99.90;;;;;;4946449;28;20470;-71
2021/07/20 12:30:41;;;;;;;13.80;10.67;;;23.30;99.90;;;;;;4945527;28;20491;-71
2021/07/20 12:33:14;;;;;;;12.07;10.27;;;23.30;99.90;;;;;;4946687;28;20828;-71
2021/07/20 12:35:49;;;;;;;12.90;9.73;;;23.50;99.90;;;;;;4945337;28;20861;-71
2021/07/20 12:38:22;;;;;;;11.73;10.53;;;23.50;99.90;;;;;;4946482;28;20814;-72
2021/07/20 12:40:49;;;;;;;12.67;10.50;;;23.60;99.90;;;;;;4945829;28;20464;-71
2021/07/20 12:43:17;;;;;;;11.90;10.37;;;23.70;99.90;;;;;;4946223;28;20834;-71
2021/07/20 12:45:45;;;;;;;12.43;11.13;;;23.80;99.90;;;;;;4945911;28;20914;-70
2021/07/20 12:48:23;;;;;;;11.73;10.53;;;23.80;99.90;;;;;;4946810;28;20842;-71
2021/07/20 12:50:52;;;;;;;12.07;10.60;;;23.80;99.90;;;;;;4944948;28;21033;-71
2021/07/20 12:53:20;;;;;;;11.83;10.67;;;23.90;99.90;;;;;;4946500;28;20990;-70
2021/07/20 12:55:48;;;;;;;11.33;10.13;;;23.90;99.90;;;;;;4945396;28;20550;-71
2021/07/20 12:58:18;;;;;;;13.80;10.87;;;23.90;99.90;;;;;;4945860;28;20470;-71
2021/07/20 13:00:46;;;;;;;12.63;10.50;;;23.90;99.90;;;;;;4950966;28;20462;-71
2021/07/20 13:03:14;;;;;;;14.10;10.60;;;23.90;99.90;;;;;;4965112;28;20463;-71
2021/07/20 13:05:42;;;;;;;12.50;10.30;;;23.80;99.90;;;;;;4964462;28;20487;-70
2021/07/20 13:08:13;;;;;;;11.70;10.50;;;23.90;99.90;;;;;;4964878;28;20463;-71
2021/07/20 13:10:40;;;;;;;10.37;9.37;;;24.00;99.90;;;;;;4964336;28;20498;-71
2021/07/20 13:13:07;;;;;;;16.90;9.90;;;24.00;99.90;;;;;;4965009;28;20467;-70
2021/07/20 13:15:35;;;;;;;11.07;10.00;;;24.10;99.90;;;;;;4964370;28;20877;-70
2021/07/20 13:18:03;;;;;;;13.67;10.20;;;24.20;99.90;;;;;;4953230;28;20571;-71
2021/07/20 13:20:31;;;;;;;12.23;10.93;;;24.20;99.90;;;;;;4944509;28;20511;-71
2021/07/20 13:22:58;;;;;;;11.80;10.10;;;24.20;99.90;;;;;;4945535;28;20464;-71
2021/07/20 13:25:27;;;;;;;13.70;11.23;;;24.10;99.90;;;;;;4945489;28;20563;-71
2021/07/20 13:27:55;;;;;;;15.60;11.30;;;24.20;99.90;;;;;;4944513;28;20467;-71
2021/07/20 13:30:25;;;;;;;11.10;10.00;;;24.10;99.90;;;;;;4946684;28;20475;-71
2021/07/20 13:32:52;;;;;;;12.33;10.40;;;24.10;99.90;;;;;;4948123;28;20467;-71
2021/07/20 13:35:21;;;;;;;12.53;10.10;;;24.20;99.90;;;;;;4948225;28;20480;-71